Aviation Digital Data Service (ADDS)

Output produced by METARs form (1739 UTC 27 May 2017)
found at http://www.aviationweather.gov/adds/metars/
 
GOGS 271700Z 28006KT CAVOK 30/22 Q1011
TAF GOGS 271730Z 2718/2818 26008KT 9999 SCT012
       
GOGG 271600Z 27006KT 9999 FEW016TCU SCT230 36/24 Q1012
GOGK 271500Z 24004KT 9999 SCT016 38/23 Q1010
GOGS 271700Z 28006KT CAVOK 30/22 Q1011
TAF GOGS 271730Z 2718/2818 26008KT 9999 SCT012
       
GOOD 271500Z VRB02KT CAVOK 40/19 Q1011
GOOG 271500Z 36004KT CAVOK 41/22 Q////
GOOK 271500Z 18004KT CAVOK 38/15 Q1011
GOOY 271730Z 34011KT 310V010 9999 FEW010 26/21 Q1012 NOSIG
TAF GOOY 271730Z 2718/2824 34010KT 9999 SCT010 
     TEMPO 2719/2801 BKN008
       
GOSM 271500Z 06004KT CAVOK 43/14 Q1009
GOSP 271500Z 04002KT CAVOK 41/13 Q1009
GOSS 271500Z 32010KT 270V360 CAVOK 28/20 Q1012
TAF GOSS 271730Z 2718/2818 33010KT CAVOK
       
GOTK 271500Z 18006KT 9999 BKN018TCU SCT230 37/22 Q1010
GOTT 271500Z 26008KT 920V320 CAVOK 40/19 Q1009
GOOK 271500Z 18004KT CAVOK 38/15 Q1011
GOTK 271500Z 18006KT 9999 BKN018TCU SCT230 37/22 Q1010
GOOY 271730Z 34011KT 310V010 9999 FEW010 26/21 Q1012 NOSIG
TAF GOOY 271730Z 2718/2824 34010KT 9999 SCT010 
     TEMPO 2719/2801 BKN008
       
GOSS 271500Z 32010KT 270V360 CAVOK 28/20 Q1012
TAF GOSS 271730Z 2718/2818 33010KT CAVOK
       
GOTT 271500Z 26008KT 920V320 CAVOK 40/19 Q1009
GOGG 271600Z 27006KT 9999 FEW016TCU SCT230 36/24 Q1012